Time,TemperatureF,DewpointF,PressureIn,WindDirection,WindDirectionDegrees,WindSpeedMPH,WindSpeedGustMPH,Humidity,HourlyPrecipIn,Conditions,Clouds,dailyrainin,SoftwareType,DateUTC
2013-01-20 00:01:00,36.7,32.0,30.23,East,94,0.0,0.0,83,0.00,,CLR,0.00,VWS V14.01,2013-01-20 08:01:00,
2013-01-20 00:06:00,36.5,32.1,30.23,ESE,118,1.9,1.9,84,0.00,,CLR,0.00,VWS V14.01,2013-01-20 08:06:00,
2013-01-20 00:11:00,36.2,31.8,30.23,ESE,120,1.9,3.8,84,0.00,,CLR,0.00,VWS V14.01,2013-01-20 08:11:00,
2013-01-20 00:16:00,35.9,31.8,30.23,ESE,120,0.0,3.8,85,0.00,,CLR,0.00,VWS V14.01,2013-01-20 08:16:00,
2013-01-20 00:21:00,35.7,31.6,30.24,ESE,120,0.0,3.8,85,0.00,,CLR,0.00,VWS V14.01,2013-01-20 08:21:00,
2013-01-20 00:26:00,35.6,31.5,30.24,ESE,120,0.0,3.8,85,0.00,,CLR,0.00,VWS V14.01,2013-01-20 08:26:00,
2013-01-20 00:31:00,35.5,31.5,30.24,ESE,118,0.0,1.9,85,0.00,,CLR,0.00,VWS V14.01,2013-01-20 08:31:00,
2013-01-20 00:37:00,35.4,31.1,30.23,SE,124,1.9,1.9,84,0.00,,CLR,0.00,VWS V14.01,2013-01-20 08:37:00,
2013-01-20 00:42:00,35.3,31.2,30.23,ESE,118,0.0,3.8,85,0.00,,CLR,0.00,VWS V14.01,2013-01-20 08:42:00,
2013-01-20 00:47:00,35.2,31.1,30.23,ESE,118,0.0,3.8,85,0.00,,CLR,0.00,VWS V14.01,2013-01-20 08:47:00,
2013-01-20 00:52:00,35.1,31.0,30.24,ESE,120,0.0,3.8,85,0.00,,CLR,0.00,VWS V14.01,2013-01-20 08:52:00,
2013-01-20 00:57:00,35.0,31.0,30.24,ESE,118,1.9,3.8,85,0.00,,CLR,0.00,VWS V14.01,2013-01-20 08:57:00,
2013-01-20 01:02:00,34.9,30.9,30.24,ESE,118,0.0,1.9,85,0.00,,CLR,0.00,VWS V14.01,2013-01-20 09:02:00,
2013-01-20 01:07:00,34.7,30.7,30.24,ESE,119,0.0,1.9,85,0.00,,CLR,0.00,VWS V14.01,2013-01-20 09:07:00,
2013-01-20 01:12:00,34.3,30.3,30.24,ESE,119,0.0,1.9,85,0.00,,CLR,0.00,VWS V14.01,2013-01-20 09:12:00,
2013-01-20 01:17:00,34.0,30.3,30.24,ESE,118,0.0,1.9,86,0.00,,CLR,0.00,VWS V14.01,2013-01-20 09:17:00,
2013-01-20 01:22:00,33.8,30.1,30.24,ESE,117,0.0,1.9,86,0.00,,CLR,0.00,VWS V14.01,2013-01-20 09:22:00,
2013-01-20 01:27:00,33.7,30.2,30.24,ESE,120,1.9,3.8,87,0.00,,CLR,0.00,VWS V14.01,2013-01-20 09:27:00,
2013-01-20 01:32:00,33.6,30.1,30.24,ESE,120,0.0,1.9,87,0.00,,CLR,0.00,VWS V14.01,2013-01-20 09:32:00,
2013-01-20 01:37:00,33.7,30.2,30.24,East,94,1.9,3.8,87,0.00,,CLR,0.00,VWS V14.01,2013-01-20 09:37:00,
2013-01-20 01:42:00,33.7,30.2,30.24,ESE,111,3.8,3.8,87,0.00,,CLR,0.00,VWS V14.01,2013-01-20 09:42:00,
2013-01-20 01:47:00,33.5,30.0,30.24,East,101,0.0,3.8,87,0.00,,CLR,0.00,VWS V14.01,2013-01-20 09:47:00,
2013-01-20 01:52:00,33.3,30.1,30.24,ESE,119,3.8,3.8,88,0.00,,CLR,0.00,VWS V14.01,2013-01-20 09:52:00,
2013-01-20 01:57:00,33.3,30.1,30.24,SE,129,1.9,3.8,88,0.00,,CLR,0.00,VWS V14.01,2013-01-20 09:57:00,
2013-01-20 02:02:00,33.2,29.8,30.24,ESE,119,1.9,1.9,87,0.00,,,0.00,VWS V14.01,2013-01-20 10:02:00,
2013-01-20 02:07:00,33.1,29.9,30.24,ESE,115,0.0,1.9,88,0.00,,,0.00,VWS V14.01,2013-01-20 10:07:00,
2013-01-20 02:12:00,33.1,29.9,30.25,ESE,115,0.0,1.9,88,0.00,,,0.00,VWS V14.01,2013-01-20 10:12:00,
2013-01-20 02:17:00,32.9,29.5,30.25,ESE,116,0.0,1.9,87,0.00,,,0.00,VWS V14.01,2013-01-20 10:17:00,
2013-01-20 02:24:00,32.6,29.5,30.25,ESE,114,0.0,0.0,88,0.00,,,0.00,VWS V14.01,2013-01-20 10:24:00,
2013-01-20 02:29:00,32.4,29.2,30.25,ESE,115,0.0,1.9,88,0.00,,,0.00,VWS V14.01,2013-01-20 10:29:00,
2013-01-20 02:34:00,32.2,29.3,30.25,SE,124,1.9,3.8,89,0.00,,,0.00,VWS V14.01,2013-01-20 10:34:00,
2013-01-20 02:39:00,32.1,29.2,30.25,ESE,116,1.9,3.8,89,0.00,,,0.00,VWS V14.01,2013-01-20 10:39:00,
2013-01-20 02:44:00,32.2,29.3,30.25,ESE,123,0.0,3.8,89,0.00,,,0.00,VWS V14.01,2013-01-20 10:44:00,
2013-01-20 02:49:00,32.2,29.3,30.25,ESE,123,0.0,3.8,89,0.00,,,0.00,VWS V14.01,2013-01-20 10:49:00,
2013-01-20 02:54:00,32.0,29.1,30.25,ESE,123,0.0,3.8,89,0.00,,,0.00,VWS V14.01,2013-01-20 10:54:00,
2013-01-20 02:59:00,31.9,29.0,30.25,ESE,122,0.0,3.8,89,0.00,,,0.00,VWS V14.01,2013-01-20 10:59:00,
2013-01-20 03:04:00,31.7,28.8,30.25,ESE,117,0.0,1.9,89,0.00,,,0.00,VWS V14.01,2013-01-20 11:04:00,
2013-01-20 03:10:00,31.6,29.0,30.25,ESE,107,0.0,1.9,90,0.00,,,0.00,VWS V14.01,2013-01-20 11:10:00,
2013-01-20 03:15:00,31.7,28.8,30.25,SE,124,1.9,1.9,89,0.00,,,0.00,VWS V14.01,2013-01-20 11:15:00,
2013-01-20 03:20:00,31.6,28.7,30.25,SE,124,0.0,1.9,89,0.00,,,0.00,VWS V14.01,2013-01-20 11:20:00,
2013-01-20 03:25:00,31.5,28.6,30.25,SE,124,0.0,1.9,89,0.00,,,0.00,VWS V14.01,2013-01-20 11:25:00,
2013-01-20 03:30:00,31.4,28.8,30.25,ESE,110,0.0,1.9,90,0.00,,,0.00,VWS V14.01,2013-01-20 11:30:00,
2013-01-20 03:35:00,31.2,28.3,30.24,ESE,113,0.0,1.9,89,0.00,,,0.00,VWS V14.01,2013-01-20 11:35:00,
2013-01-20 03:40:00,31.1,28.5,30.24,ESE,110,0.0,3.8,90,0.00,,,0.00,VWS V14.01,2013-01-20 11:40:00,
2013-01-20 03:45:00,31.2,28.6,30.24,ESE,111,0.0,3.8,90,0.00,,,0.00,VWS V14.01,2013-01-20 11:45:00,
2013-01-20 03:50:00,31.2,28.6,30.24,East,94,1.9,3.8,90,0.00,,,0.00,VWS V14.01,2013-01-20 11:50:00,
2013-01-20 03:55:00,31.4,28.8,30.24,ESE,109,0.0,3.8,90,0.00,,,0.00,VWS V14.01,2013-01-20 11:55:00,
2013-01-20 04:00:00,31.6,28.7,30.24,ESE,110,1.9,1.9,89,0.00,,,0.00,VWS V14.01,2013-01-20 12:00:00,
2013-01-20 04:05:00,31.6,28.7,30.24,ESE,117,1.9,3.8,89,0.00,,,0.00,VWS V14.01,2013-01-20 12:05:00,
2013-01-20 04:10:00,31.5,28.4,30.24,ESE,118,1.9,3.8,88,0.00,,,0.00,VWS V14.01,2013-01-20 12:10:00,
2013-01-20 04:15:00,31.5,28.6,30.24,ESE,117,0.0,3.8,89,0.00,,,0.00,VWS V14.01,2013-01-20 12:15:00,
2013-01-20 04:20:00,31.3,28.2,30.24,ESE,117,0.0,3.8,88,0.00,,,0.00,VWS V14.01,2013-01-20 12:20:00,
2013-01-20 04:25:00,30.9,28.0,30.24,ESE,115,1.9,3.8,89,0.00,,,0.00,VWS V14.01,2013-01-20 12:25:00,
2013-01-20 04:30:00,30.8,28.0,30.24,ESE,115,0.0,1.9,89,0.00,,,0.00,VWS V14.01,2013-01-20 12:30:00,
2013-01-20 04:35:00,30.7,28.1,30.24,ESE,120,1.9,1.9,90,0.00,,,0.00,VWS V14.01,2013-01-20 12:35:00,
2013-01-20 04:41:00,30.7,28.1,30.24,ESE,119,0.0,1.9,90,0.00,,,0.00,VWS V14.01,2013-01-20 12:41:00,
2013-01-20 04:46:00,30.6,28.0,30.24,ESE,107,0.0,1.9,90,0.00,,,0.00,VWS V14.01,2013-01-20 12:46:00,
2013-01-20 04:51:00,30.4,27.8,30.23,ESE,108,0.0,1.9,90,0.00,,,0.00,VWS V14.01,2013-01-20 12:51:00,
2013-01-20 04:56:00,30.2,27.6,30.24,ESE,107,0.0,1.9,90,0.00,,,0.00,VWS V14.01,2013-01-20 12:56:00,
2013-01-20 05:01:00,30.0,27.4,30.23,ESE,111,0.0,0.0,90,0.00,,,0.00,VWS V14.01,2013-01-20 13:01:00,
2013-01-20 05:06:00,30.1,27.8,30.24,ESE,116,0.0,3.8,91,0.00,,,0.00,VWS V14.01,2013-01-20 13:06:00,
2013-01-20 05:11:00,30.2,27.9,30.23,ESE,106,1.9,3.8,91,0.00,,,0.00,VWS V14.01,2013-01-20 13:11:00,
2013-01-20 05:16:00,30.2,27.9,30.23,ESE,107,0.0,3.8,91,0.00,,,0.00,VWS V14.01,2013-01-20 13:16:00,
2013-01-20 05:21:00,30.2,27.9,30.23,ESE,107,0.0,3.8,91,0.00,,,0.00,VWS V14.01,2013-01-20 13:21:00,
2013-01-20 05:26:00,30.0,27.4,30.23,ESE,108,0.0,3.8,90,0.00,,,0.00,VWS V14.01,2013-01-20 13:26:00,
2013-01-20 05:31:00,29.6,27.0,30.24,ESE,108,0.0,0.0,90,0.00,,,0.00,VWS V14.01,2013-01-20 13:31:00,
2013-01-20 05:36:00,29.4,27.1,30.24,ESE,107,0.0,0.0,91,0.00,,,0.00,VWS V14.01,2013-01-20 13:36:00,
2013-01-20 05:41:00,29.4,27.1,30.23,ESE,117,0.0,1.9,91,0.00,,,0.00,VWS V14.01,2013-01-20 13:41:00,
2013-01-20 05:46:00,29.3,27.0,30.24,ESE,117,0.0,1.9,91,0.00,,,0.00,VWS V14.01,2013-01-20 13:46:00,
2013-01-20 05:51:00,29.3,27.0,30.23,ESE,116,1.9,3.8,91,0.00,,,0.00,VWS V14.01,2013-01-20 13:51:00,
2013-01-20 05:56:00,29.4,27.1,30.23,SE,131,1.9,3.8,91,0.00,,,0.00,VWS V14.01,2013-01-20 13:56:00,
2013-01-20 06:01:00,29.5,27.2,30.23,SE,124,1.9,3.8,91,0.00,,CLR,0.00,VWS V14.01,2013-01-20 14:01:00,
2013-01-20 06:07:00,29.7,27.7,30.23,ESE,120,1.9,5.7,92,0.00,,CLR,0.00,VWS V14.01,2013-01-20 14:07:00,
2013-01-20 06:12:00,30.0,27.7,30.22,ESE,108,0.0,5.7,91,0.00,,CLR,0.00,VWS V14.01,2013-01-20 14:12:00,
2013-01-20 06:17:00,30.0,27.7,30.22,ESE,108,0.0,5.7,91,0.00,,CLR,0.00,VWS V14.01,2013-01-20 14:17:00,
2013-01-20 06:22:00,30.0,27.7,30.23,NE,51,1.9,5.7,91,0.00,,,0.00,VWS V14.01,2013-01-20 14:22:00,
2013-01-20 06:27:00,30.0,27.7,30.23,ESE,111,1.9,5.7,91,0.00,,,0.00,VWS V14.01,2013-01-20 14:27:00,
2013-01-20 06:32:00,29.8,27.5,30.23,East,97,0.0,0.0,91,0.00,,,0.00,VWS V14.01,2013-01-20 14:32:00,
2013-01-20 06:37:00,29.6,27.0,30.23,East,99,0.0,0.0,90,0.00,,,0.00,VWS V14.01,2013-01-20 14:37:00,
2013-01-20 06:42:00,29.4,26.8,30.23,East,98,0.0,0.0,90,0.00,,CLR,0.00,VWS V14.01,2013-01-20 14:42:00,
2013-01-20 06:47:00,29.0,26.4,30.23,East,98,0.0,0.0,90,0.00,,CLR,0.00,VWS V14.01,2013-01-20 14:47:00,
2013-01-20 06:52:00,28.6,26.0,30.23,East,99,0.0,0.0,90,0.00,,CLR,0.00,VWS V14.01,2013-01-20 14:52:00,
2013-01-20 06:57:00,28.3,26.0,30.23,East,99,0.0,0.0,91,0.00,,CLR,0.00,VWS V14.01,2013-01-20 14:57:00,
2013-01-20 07:02:00,27.9,25.6,30.23,East,99,0.0,0.0,91,0.00,,,0.00,VWS V14.01,2013-01-20 15:02:00,
2013-01-20 07:07:00,27.5,25.2,30.23,East,99,0.0,0.0,91,0.00,,,0.00,VWS V14.01,2013-01-20 15:07:00,
2013-01-20 07:12:00,27.2,24.9,30.23,East,98,0.0,0.0,91,0.00,,,0.00,VWS V14.01,2013-01-20 15:12:00,
2013-01-20 07:17:00,27.4,25.4,30.23,East,98,0.0,0.0,92,0.00,,,0.00,VWS V14.01,2013-01-20 15:17:00,
2013-01-20 07:22:00,27.7,25.9,30.23,East,98,0.0,1.9,93,0.00,,,0.00,VWS V14.01,2013-01-20 15:22:00,
2013-01-20 07:27:00,27.8,26.0,30.23,East,98,0.0,1.9,93,0.00,,,0.00,VWS V14.01,2013-01-20 15:27:00,
2013-01-20 07:32:00,28.1,26.3,30.23,East,101,1.9,1.9,93,0.00,,,0.00,VWS V14.01,2013-01-20 15:32:00,
2013-01-20 07:37:00,28.3,26.5,30.23,ESE,113,1.9,1.9,93,0.00,,,0.00,VWS V14.01,2013-01-20 15:37:00,
2013-01-20 07:42:00,28.4,26.6,30.24,ESE,106,0.0,3.8,93,0.00,,,0.00,VWS V14.01,2013-01-20 15:42:00,
2013-01-20 07:47:00,28.6,26.8,30.24,ESE,106,0.0,3.8,93,0.00,,,0.00,VWS V14.01,2013-01-20 15:47:00,
2013-01-20 07:52:00,28.8,26.8,30.24,ESE,106,0.0,3.8,92,0.00,,,0.00,VWS V14.01,2013-01-20 15:52:00,
2013-01-20 07:57:00,29.3,27.5,30.24,ESE,106,0.0,3.8,93,0.00,,,0.00,VWS V14.01,2013-01-20 15:57:00,
2013-01-20 08:02:00,30.2,28.4,30.24,ESE,107,0.0,1.9,93,0.00,,,0.00,VWS V14.01,2013-01-20 16:02:00,
2013-01-20 08:07:00,31.0,29.0,30.24,SE,126,1.9,3.8,92,0.00,,,0.00,VWS V14.01,2013-01-20 16:07:00,
2013-01-20 08:12:00,31.7,29.1,30.24,ESE,120,3.8,3.8,90,0.00,,,0.00,VWS V14.01,2013-01-20 16:12:00,
2013-01-20 08:18:00,32.3,29.4,30.24,ESE,103,3.8,5.7,89,0.00,,,0.00,VWS V14.01,2013-01-20 16:18:00,
2013-01-20 08:23:00,32.9,29.7,30.24,SE,124,1.9,5.7,88,0.00,,,0.00,VWS V14.01,2013-01-20 16:23:00,
2013-01-20 08:28:00,33.8,30.6,30.24,SE,126,1.9,5.7,88,0.00,,,0.00,VWS V14.01,2013-01-20 16:28:00,
2013-01-20 08:33:00,34.7,31.0,30.24,SE,124,0.0,1.9,86,0.00,,,0.00,VWS V14.01,2013-01-20 16:33:00,
2013-01-20 08:38:00,35.3,31.2,30.24,SE,124,0.0,1.9,85,0.00,,,0.00,VWS V14.01,2013-01-20 16:38:00,
2013-01-20 08:43:00,35.9,31.2,30.24,ESE,122,1.9,3.8,83,0.00,,,0.00,VWS V14.01,2013-01-20 16:43:00,
2013-01-20 08:48:00,36.4,31.7,30.24,SE,125,1.9,3.8,83,0.00,,,0.00,VWS V14.01,2013-01-20 16:48:00,
2013-01-20 08:53:00,37.3,32.3,30.24,ESE,120,0.0,3.8,82,0.00,,,0.00,VWS V14.01,2013-01-20 16:53:00,
2013-01-20 08:58:00,38.0,32.1,30.24,ESE,110,3.8,3.8,79,0.00,,,0.00,VWS V14.01,2013-01-20 16:58:00,
2013-01-20 09:03:00,38.5,32.6,30.24,ESE,117,0.0,1.9,79,0.00,,FEW200,0.00,VWS V14.01,2013-01-20 17:03:00,
2013-01-20 09:08:00,39.4,33.1,30.24,ESE,117,0.0,1.9,78,0.00,,FEW200,0.00,VWS V14.01,2013-01-20 17:08:00,
2013-01-20 09:13:00,40.5,33.5,30.24,ESE,117,0.0,1.9,76,0.00,,FEW200,0.00,VWS V14.01,2013-01-20 17:13:00,
2013-01-20 09:18:00,41.4,34.1,30.24,ESE,117,0.0,1.9,75,0.00,,FEW200,0.00,VWS V14.01,2013-01-20 17:18:00,
2013-01-20 09:23:00,42.2,34.2,30.25,ESE,120,0.0,1.9,73,0.00,,FEW200,0.00,VWS V14.01,2013-01-20 17:23:00,
2013-01-20 09:28:00,42.9,34.8,30.24,ESE,120,0.0,1.9,73,0.00,,FEW200,0.00,VWS V14.01,2013-01-20 17:28:00,
2013-01-20 09:33:00,43.6,34.8,30.24,ESE,120,0.0,1.9,71,0.00,,FEW200,0.00,VWS V14.01,2013-01-20 17:33:00,
2013-01-20 09:38:00,44.2,35.4,30.24,East,94,0.0,1.9,71,0.00,,FEW200,0.00,VWS V14.01,2013-01-20 17:38:00,
2013-01-20 09:43:00,44.7,35.2,30.24,WNW,298,1.9,1.9,69,0.00,,FEW200,0.00,VWS V14.01,2013-01-20 17:43:00,
2013-01-20 09:48:00,44.7,35.2,30.25,WNW,297,0.0,1.9,69,0.00,,FEW200,0.00,VWS V14.01,2013-01-20 17:48:00,
2013-01-20 09:53:00,45.1,34.8,30.25,SW,214,0.0,1.9,67,0.00,,FEW200,0.00,VWS V14.01,2013-01-20 17:53:00,
2013-01-20 09:58:00,45.5,34.8,30.25,SSW,212,0.0,1.9,66,0.00,,FEW200,0.00,VWS V14.01,2013-01-20 17:58:00,
2013-01-20 10:03:00,46.1,35.4,30.25,SW,235,0.0,1.9,66,0.00,,CLR,0.00,VWS V14.01,2013-01-20 18:03:00,
2013-01-20 10:08:00,46.5,35.0,30.25,SSW,195,1.9,1.9,64,0.00,,CLR,0.00,VWS V14.01,2013-01-20 18:08:00,
2013-01-20 10:13:00,46.9,35.0,30.24,SW,224,0.0,3.8,63,0.00,,CLR,0.00,VWS V14.01,2013-01-20 18:13:00,
2013-01-20 10:18:00,47.4,35.5,30.24,SSW,208,1.9,3.8,63,0.00,,CLR,0.00,VWS V14.01,2013-01-20 18:18:00,
2013-01-20 10:23:00,47.6,34.8,30.24,SSW,200,3.8,3.8,61,0.00,,CLR,0.00,VWS V14.01,2013-01-20 18:23:00,
2013-01-20 10:28:00,47.9,35.5,30.24,West,269,0.0,3.8,62,0.00,,CLR,0.00,VWS V14.01,2013-01-20 18:28:00,
2013-01-20 10:33:00,48.3,35.9,30.24,SSW,210,1.9,3.8,62,0.00,,CLR,0.00,VWS V14.01,2013-01-20 18:33:00,
2013-01-20 10:39:00,48.7,35.5,30.23,West,277,0.0,3.8,60,0.00,,CLR,0.00,VWS V14.01,2013-01-20 18:39:00,
2013-01-20 10:44:00,49.1,35.4,30.23,SSW,212,0.0,5.7,59,0.00,,CLR,0.00,VWS V14.01,2013-01-20 18:44:00,
2013-01-20 10:49:00,49.6,36.3,30.23,West,281,3.8,5.7,60,0.00,,CLR,0.00,VWS V14.01,2013-01-20 18:49:00,
2013-01-20 10:54:00,50.1,36.8,30.23,West,273,3.8,5.7,60,0.00,,CLR,0.00,VWS V14.01,2013-01-20 18:54:00,
2013-01-20 10:59:00,50.4,36.2,30.23,SSW,211,3.8,5.7,58,0.00,,CLR,0.00,VWS V14.01,2013-01-20 18:59:00,
2013-01-20 11:04:00,50.9,36.2,30.23,SW,215,0.0,5.7,57,0.00,,CLR,0.00,VWS V14.01,2013-01-20 19:04:00,
2013-01-20 11:09:00,51.5,36.3,30.23,WSW,255,1.9,5.7,56,0.00,,CLR,0.00,VWS V14.01,2013-01-20 19:09:00,
2013-01-20 11:14:00,51.9,36.7,30.22,WSW,242,0.0,5.7,56,0.00,,CLR,0.00,VWS V14.01,2013-01-20 19:14:00,
2013-01-20 11:19:00,52.3,35.7,30.22,SW,219,0.0,5.7,53,0.00,,CLR,0.00,VWS V14.01,2013-01-20 19:19:00,
2013-01-20 11:24:00,52.8,36.2,30.22,SW,222,1.9,5.7,53,0.00,,CLR,0.00,VWS V14.01,2013-01-20 19:24:00,
2013-01-20 11:29:00,53.3,36.1,30.21,WSW,252,0.0,5.7,52,0.00,,CLR,0.00,VWS V14.01,2013-01-20 19:29:00,
2013-01-20 11:34:00,53.7,35.5,30.21,North,360,1.9,3.8,50,0.00,,CLR,0.00,VWS V14.01,2013-01-20 19:34:00,
2013-01-20 11:39:00,53.8,34.6,30.21,West,267,0.0,3.8,48,0.00,,CLR,0.00,VWS V14.01,2013-01-20 19:39:00,
2013-01-20 11:44:00,54.2,34.4,30.20,West,269,0.0,5.7,47,0.00,,CLR,0.00,VWS V14.01,2013-01-20 19:44:00,
2013-01-20 11:49:00,54.4,34.6,30.20,NW,324,1.9,5.7,47,0.00,,CLR,0.00,VWS V14.01,2013-01-20 19:49:00,
2013-01-20 11:54:00,54.9,35.1,30.20,ENE,68,1.9,5.7,47,0.00,,CLR,0.00,VWS V14.01,2013-01-20 19:54:00,
2013-01-20 11:59:00,55.9,36.0,30.20,SSW,205,0.0,5.7,47,0.00,,CLR,0.00,VWS V14.01,2013-01-20 19:59:00,
2013-01-20 12:04:00,56.6,36.1,30.19,WNW,285,1.9,1.9,46,0.00,,SCT200,0.00,VWS V14.01,2013-01-20 20:04:00,
2013-01-20 12:09:00,57.0,35.9,30.19,South,185,1.9,3.8,45,0.00,,SCT200,0.00,VWS V14.01,2013-01-20 20:09:00,
2013-01-20 12:14:00,57.2,36.1,30.19,SSW,203,3.8,5.7,45,0.00,,SCT200,0.00,VWS V14.01,2013-01-20 20:14:00,
2013-01-20 12:20:00,57.5,35.2,30.19,SSW,210,1.9,5.7,43,0.00,,SCT200,0.00,VWS V14.01,2013-01-20 20:20:00,
2013-01-20 12:25:00,57.9,35.0,30.18,West,271,0.0,5.7,42,0.00,,SCT200,0.00,VWS V14.01,2013-01-20 20:25:00,
2013-01-20 12:30:00,58.2,35.2,30.18,West,268,3.8,5.7,42,0.00,,SCT200,0.00,VWS V14.01,2013-01-20 20:30:00,
2013-01-20 12:35:00,58.7,35.1,30.18,WNW,284,0.0,3.8,41,0.00,,SCT200,0.00,VWS V14.01,2013-01-20 20:35:00,
2013-01-20 12:40:00,59.2,36.1,30.17,SW,216,3.8,3.8,42,0.00,,SCT200,0.00,VWS V14.01,2013-01-20 20:40:00,
2013-01-20 12:45:00,59.5,35.2,30.17,West,281,0.0,3.8,40,0.00,,SCT200,0.00,VWS V14.01,2013-01-20 20:45:00,
2013-01-20 12:50:00,59.3,35.6,30.17,NNE,13,1.9,5.7,41,0.00,,SCT200,0.00,VWS V14.01,2013-01-20 20:50:00,
2013-01-20 12:55:00,59.6,36.5,30.16,West,270,0.0,5.7,42,0.00,,SCT200,0.00,VWS V14.01,2013-01-20 20:55:00,
2013-01-20 13:01:00,60.0,37.5,30.16,West,278,1.9,1.9,43,0.00,,SCT200,0.00,VWS V14.01,2013-01-20 21:01:00,
2013-01-20 13:06:00,60.1,35.7,30.16,SSW,212,1.9,3.8,40,0.00,,CLR,0.00,VWS V14.01,2013-01-20 21:06:00,
2013-01-20 13:11:00,60.3,37.7,30.16,West,269,1.9,5.7,43,0.00,,CLR,0.00,VWS V14.01,2013-01-20 21:11:00,
2013-01-20 13:16:00,60.7,37.5,30.15,SW,215,1.9,5.7,42,0.00,,CLR,0.00,VWS V14.01,2013-01-20 21:16:00,
2013-01-20 13:21:00,61.3,38.0,30.15,SSW,207,1.9,5.7,42,0.00,,CLR,0.00,VWS V14.01,2013-01-20 21:21:00,
2013-01-20 13:27:00,61.4,37.5,30.15,SSW,211,3.8,7.6,41,0.00,,CLR,0.00,VWS V14.01,2013-01-20 21:27:00,
2013-01-20 13:32:00,61.6,38.9,30.15,WSW,256,1.9,1.9,43,0.00,,CLR,0.00,VWS V14.01,2013-01-20 21:32:00,
2013-01-20 13:37:00,61.7,39.0,30.15,SSW,209,1.9,5.7,43,0.00,,CLR,0.00,VWS V14.01,2013-01-20 21:37:00,
2013-01-20 13:42:00,61.8,40.8,30.14,SW,233,3.8,7.6,46,0.00,,CLR,0.00,VWS V14.01,2013-01-20 21:42:00,
2013-01-20 13:47:00,61.8,40.8,30.14,SW,215,1.9,9.5,46,0.00,,CLR,0.00,VWS V14.01,2013-01-20 21:47:00,
2013-01-20 13:52:00,62.0,41.0,30.14,West,280,5.7,9.5,46,0.00,,CLR,0.00,VWS V14.01,2013-01-20 21:52:00,
2013-01-20 13:57:00,62.4,41.9,30.14,SSW,211,1.9,9.5,47,0.00,,CLR,0.00,VWS V14.01,2013-01-20 21:57:00,
2013-01-20 14:02:00,63.0,41.9,30.14,West,273,1.9,5.7,46,0.00,,FEW200,0.00,VWS V14.01,2013-01-20 22:02:00,
2013-01-20 14:07:00,62.6,42.1,30.14,SSW,207,1.9,9.5,47,0.00,,FEW200,0.00,VWS V14.01,2013-01-20 22:07:00,
2013-01-20 14:13:00,63.4,42.3,30.14,West,271,3.8,9.5,46,0.00,,FEW200,0.00,VWS V14.01,2013-01-20 22:13:00,
2013-01-20 14:18:00,63.6,41.9,30.13,SSW,198,1.9,9.5,45,0.00,,FEW200,0.00,VWS V14.01,2013-01-20 22:18:00,
2013-01-20 14:23:00,63.5,40.6,30.13,SSW,200,1.9,9.5,43,0.00,,FEW200,0.00,VWS V14.01,2013-01-20 22:23:00,
2013-01-20 14:28:00,63.5,41.8,30.13,South,191,3.8,9.5,45,0.00,,FEW200,0.00,VWS V14.01,2013-01-20 22:28:00,
2013-01-20 14:33:00,63.6,41.3,30.13,West,270,1.9,5.7,44,0.00,,FEW200,0.00,VWS V14.01,2013-01-20 22:33:00,
2013-01-20 14:39:00,63.7,40.8,30.13,West,259,1.9,7.6,43,0.00,,FEW200,0.00,VWS V14.01,2013-01-20 22:39:00,
2013-01-20 14:44:00,63.8,40.9,30.13,SSW,198,3.8,9.5,43,0.00,,FEW200,0.00,VWS V14.01,2013-01-20 22:44:00,
2013-01-20 14:49:00,63.9,41.0,30.13,SW,225,1.9,9.5,43,0.00,,FEW200,0.00,VWS V14.01,2013-01-20 22:49:00,
2013-01-20 14:54:00,63.7,40.2,30.13,West,278,3.8,9.5,42,0.00,,FEW200,0.00,VWS V14.01,2013-01-20 22:54:00,
2013-01-20 14:59:00,63.6,40.7,30.13,SSW,193,3.8,9.5,43,0.00,,FEW200,0.00,VWS V14.01,2013-01-20 22:59:00,
2013-01-20 15:04:00,63.4,40.5,30.13,WSW,239,1.9,11.4,43,0.00,,CLR,0.00,VWS V14.01,2013-01-20 23:04:00,
2013-01-20 15:09:00,62.9,40.1,30.14,SW,214,0.0,11.4,43,0.00,,CLR,0.00,VWS V14.01,2013-01-20 23:09:00,
2013-01-20 15:14:00,62.6,40.4,30.14,SSW,193,7.6,11.4,44,0.00,,CLR,0.00,VWS V14.01,2013-01-20 23:14:00,
2013-01-20 15:19:00,62.3,40.1,30.14,West,266,1.9,11.4,44,0.00,,CLR,0.00,VWS V14.01,2013-01-20 23:19:00,
2013-01-20 15:24:00,62.0,39.9,30.14,WNW,284,5.7,11.4,44,0.00,,CLR,0.00,VWS V14.01,2013-01-20 23:24:00,
2013-01-20 15:30:00,61.6,40.1,30.14,SW,236,1.9,11.4,45,0.00,,CLR,0.00,VWS V14.01,2013-01-20 23:30:00,
2013-01-20 15:35:00,61.5,39.4,30.15,West,271,3.8,9.5,44,0.00,,CLR,0.00,VWS V14.01,2013-01-20 23:35:00,
2013-01-20 15:40:00,61.4,39.9,30.14,West,264,1.9,11.4,45,0.00,,CLR,0.00,VWS V14.01,2013-01-20 23:40:00,
2013-01-20 15:45:00,61.4,39.9,30.15,WSW,257,1.9,11.4,45,0.00,,CLR,0.00,VWS V14.01,2013-01-20 23:45:00,
2013-01-20 15:50:00,61.3,39.8,30.15,WNW,283,3.8,11.4,45,0.00,,CLR,0.00,VWS V14.01,2013-01-20 23:50:00,
2013-01-20 15:55:00,61.2,39.7,30.15,WNW,284,0.0,11.4,45,0.00,,CLR,0.00,VWS V14.01,2013-01-20 23:55:00,
2013-01-20 16:00:00,61.1,39.6,30.15,West,266,1.9,5.7,45,0.00,,CLR,0.00,VWS V14.01,2013-01-21 00:00:00,
2013-01-20 16:05:00,61.1,39.6,30.15,West,274,1.9,7.6,45,0.00,,CLR,0.00,VWS V14.01,2013-01-21 00:05:00,
2013-01-20 16:10:00,61.0,39.5,30.15,West,267,1.9,7.6,45,0.00,,CLR,0.00,VWS V14.01,2013-01-21 00:10:00,
2013-01-20 16:15:00,60.8,39.3,30.15,West,276,1.9,7.6,45,0.00,,CLR,0.00,VWS V14.01,2013-01-21 00:15:00,
2013-01-20 16:21:00,60.7,39.3,30.15,WNW,295,1.9,7.6,45,0.00,,CLR,0.00,VWS V14.01,2013-01-21 00:21:00,
2013-01-20 16:26:00,60.5,39.6,30.15,West,278,1.9,7.6,46,0.00,,CLR,0.00,VWS V14.01,2013-01-21 00:26:00,
2013-01-20 16:31:00,60.4,39.5,30.15,WSW,255,1.9,3.8,46,0.00,,CLR,0.00,VWS V14.01,2013-01-21 00:31:00,
2013-01-20 16:36:00,60.3,39.5,30.15,West,266,1.9,3.8,46,0.00,,CLR,0.00,VWS V14.01,2013-01-21 00:36:00,
2013-01-20 16:41:00,60.1,39.3,30.15,West,277,0.0,3.8,46,0.00,,CLR,0.00,VWS V14.01,2013-01-21 00:41:00,
2013-01-20 16:46:00,59.9,39.6,30.15,NW,308,1.9,3.8,47,0.00,,CLR,0.00,VWS V14.01,2013-01-21 00:46:00,
2013-01-20 16:52:00,59.6,39.4,30.15,West,269,1.9,3.8,47,0.00,,CLR,0.00,VWS V14.01,2013-01-21 00:52:00,
2013-01-20 16:57:00,59.1,39.5,30.15,West,267,1.9,3.8,48,0.00,,CLR,0.00,VWS V14.01,2013-01-21 00:57:00,
2013-01-20 17:03:00,58.7,39.1,30.15,West,273,1.9,1.9,48,0.00,,CLR,0.00,VWS V14.01,2013-01-21 01:03:00,
2013-01-20 17:08:00,58.2,39.2,30.15,West,273,0.0,3.8,49,0.00,,CLR,0.00,VWS V14.01,2013-01-21 01:08:00,
2013-01-20 17:13:00,57.6,39.1,30.15,West,273,0.0,3.8,50,0.00,,CLR,0.00,VWS V14.01,2013-01-21 01:13:00,
2013-01-20 17:18:00,56.9,39.5,30.15,West,273,0.0,3.8,52,0.00,,CLR,0.00,VWS V14.01,2013-01-21 01:18:00,
2013-01-20 17:23:00,56.1,38.7,30.15,West,273,0.0,3.8,52,0.00,,CLR,0.00,VWS V14.01,2013-01-21 01:23:00,
2013-01-20 17:28:00,55.3,38.5,30.15,West,273,0.0,3.8,53,0.00,,CLR,0.00,VWS V14.01,2013-01-21 01:28:00,
2013-01-20 17:33:00,54.6,38.8,30.15,West,273,0.0,0.0,55,0.00,,CLR,0.00,VWS V14.01,2013-01-21 01:33:00,
2013-01-20 17:38:00,53.7,38.8,30.14,West,273,0.0,0.0,57,0.00,,CLR,0.00,VWS V14.01,2013-01-21 01:38:00,
2013-01-20 17:43:00,52.9,39.0,30.14,West,271,0.0,0.0,59,0.00,,CLR,0.00,VWS V14.01,2013-01-21 01:43:00,
2013-01-20 17:49:00,52.0,38.6,30.15,West,271,0.0,0.0,60,0.00,,CLR,0.00,VWS V14.01,2013-01-21 01:49:00,
2013-01-20 17:54:00,51.2,38.6,30.15,West,271,0.0,0.0,62,0.00,,CLR,0.00,VWS V14.01,2013-01-21 01:54:00,
2013-01-20 17:59:00,50.4,38.7,30.15,West,271,0.0,0.0,64,0.00,,CLR,0.00,VWS V14.01,2013-01-21 01:59:00,
2013-01-20 18:04:00,49.7,39.2,30.15,West,271,0.0,0.0,67,0.00,,CLR,0.00,VWS V14.01,2013-01-21 02:04:00,
2013-01-20 18:09:00,49.6,39.9,30.15,West,271,0.0,1.9,69,0.00,,CLR,0.00,VWS V14.01,2013-01-21 02:09:00,
2013-01-20 18:14:00,49.5,39.8,30.15,ESE,120,0.0,1.9,69,0.00,,CLR,0.00,VWS V14.01,2013-01-21 02:14:00,
2013-01-20 18:19:00,49.4,39.7,30.15,ESE,120,0.0,1.9,69,0.00,,CLR,0.00,VWS V14.01,2013-01-21 02:19:00,
2013-01-20 18:24:00,49.0,39.7,30.16,East,94,0.0,1.9,70,0.00,,CLR,0.00,VWS V14.01,2013-01-21 02:24:00,
2013-01-20 18:29:00,48.9,39.6,30.16,East,94,0.0,1.9,70,0.00,,CLR,0.00,VWS V14.01,2013-01-21 02:29:00,
2013-01-20 18:35:00,48.6,39.6,30.16,East,94,0.0,0.0,71,0.00,,CLR,0.00,VWS V14.01,2013-01-21 02:35:00,
2013-01-20 18:40:00,48.4,39.8,30.16,East,94,0.0,0.0,72,0.00,,CLR,0.00,VWS V14.01,2013-01-21 02:40:00,
2013-01-20 18:45:00,48.0,39.4,30.17,East,95,0.0,0.0,72,0.00,,CLR,0.00,VWS V14.01,2013-01-21 02:45:00,
2013-01-20 18:50:00,47.6,39.4,30.17,ESE,108,1.9,1.9,73,0.00,,CLR,0.00,VWS V14.01,2013-01-21 02:50:00,
2013-01-20 18:55:00,47.1,39.2,30.17,ESE,108,0.0,3.8,74,0.00,,CLR,0.00,VWS V14.01,2013-01-21 02:55:00,
2013-01-20 19:00:00,46.8,39.0,30.17,ESE,120,0.0,0.0,74,0.00,,CLR,0.00,VWS V14.01,2013-01-21 03:00:00,
2013-01-20 19:05:00,46.7,38.5,30.17,SE,127,0.0,3.8,73,0.00,,CLR,0.00,VWS V14.01,2013-01-21 03:05:00,
2013-01-20 19:10:00,46.5,38.7,30.17,SE,125,0.0,3.8,74,0.00,,CLR,0.00,VWS V14.01,2013-01-21 03:10:00,
2013-01-20 19:15:00,46.3,38.5,30.17,ESE,113,0.0,3.8,74,0.00,,CLR,0.00,VWS V14.01,2013-01-21 03:15:00,
2013-01-20 19:20:00,46.1,38.3,30.17,ESE,103,0.0,3.8,74,0.00,,CLR,0.00,VWS V14.01,2013-01-21 03:20:00,
2013-01-20 19:25:00,45.8,38.0,30.17,ESE,103,0.0,3.8,74,0.00,,CLR,0.00,VWS V14.01,2013-01-21 03:25:00,
2013-01-20 19:31:00,45.2,37.8,30.17,ESE,103,0.0,0.0,75,0.00,,CLR,0.00,VWS V14.01,2013-01-21 03:31:00,
2013-01-20 19:36:00,44.9,37.5,30.17,ESE,110,0.0,1.9,75,0.00,,CLR,0.00,VWS V14.01,2013-01-21 03:36:00,
2013-01-20 19:41:00,44.9,37.5,30.17,ESE,120,0.0,3.8,75,0.00,,CLR,0.00,VWS V14.01,2013-01-21 03:41:00,
2013-01-20 19:46:00,44.9,37.5,30.17,NE,51,1.9,3.8,75,0.00,,CLR,0.00,VWS V14.01,2013-01-21 03:46:00,
2013-01-20 19:51:00,45.2,37.4,30.18,ESE,122,0.0,3.8,74,0.00,,CLR,0.00,VWS V14.01,2013-01-21 03:51:00,
2013-01-20 19:56:00,45.2,37.4,30.18,ESE,110,0.0,5.7,74,0.00,,CLR,0.00,VWS V14.01,2013-01-21 03:56:00,
2013-01-20 20:01:00,45.1,37.3,30.18,East,91,0.0,3.8,74,0.00,,CLR,0.00,VWS V14.01,2013-01-21 04:01:00,
2013-01-20 20:06:00,44.9,37.1,30.18,ESE,117,1.9,3.8,74,0.00,,CLR,0.00,VWS V14.01,2013-01-21 04:06:00,
2013-01-20 20:11:00,44.4,37.0,30.18,ESE,121,0.0,5.7,75,0.00,,CLR,0.00,VWS V14.01,2013-01-21 04:11:00,
2013-01-20 20:16:00,43.8,36.7,30.18,East,96,0.0,5.7,76,0.00,,CLR,0.00,VWS V14.01,2013-01-21 04:16:00,
2013-01-20 20:22:00,43.3,36.6,30.18,ESE,117,1.9,5.7,77,0.00,,CLR,0.00,VWS V14.01,2013-01-21 04:22:00,
2013-01-20 20:27:00,43.0,36.6,30.19,ESE,115,1.9,5.7,78,0.00,,CLR,0.00,VWS V14.01,2013-01-21 04:27:00,
2013-01-20 20:32:00,42.8,36.4,30.19,ESE,118,0.0,3.8,78,0.00,,CLR,0.00,VWS V14.01,2013-01-21 04:32:00,
2013-01-20 20:37:00,42.4,36.0,30.19,ESE,120,1.9,5.7,78,0.00,,CLR,0.00,VWS V14.01,2013-01-21 04:37:00,
2013-01-20 20:42:00,42.1,35.8,30.19,SE,131,0.0,5.7,78,0.00,,CLR,0.00,VWS V14.01,2013-01-21 04:42:00,
2013-01-20 20:47:00,41.7,35.7,30.19,SE,135,0.0,5.7,79,0.00,,CLR,0.00,VWS V14.01,2013-01-21 04:47:00,
2013-01-20 20:52:00,41.3,35.6,30.18,SE,135,1.9,5.7,80,0.00,,CLR,0.00,VWS V14.01,2013-01-21 04:52:00,
2013-01-20 20:57:00,40.8,35.1,30.18,ENE,77,1.9,5.7,80,0.00,,CLR,0.00,VWS V14.01,2013-01-21 04:57:00,
2013-01-20 21:04:00,40.6,35.2,30.18,ENE,68,0.0,1.9,81,0.00,,CLR,0.00,VWS V14.01,2013-01-21 05:04:00,
2013-01-20 21:05:00,40.6,35.2,30.18,ENE,68,0.0,1.9,81,0.00,,CLR,0.00,VWS V14.01,2013-01-21 05:05:00,
2013-01-20 21:08:00,40.6,35.2,30.18,East,87,0.0,1.9,81,0.00,,CLR,0.00,VWS V14.01,2013-01-21 05:08:00,
2013-01-20 21:13:00,41.0,35.3,30.18,SE,127,0.0,1.9,80,0.00,,CLR,0.00,VWS V14.01,2013-01-21 05:13:00,
2013-01-20 21:18:00,41.1,35.4,30.18,SE,127,0.0,1.9,80,0.00,,CLR,0.00,VWS V14.01,2013-01-21 05:18:00,
2013-01-20 21:19:00,41.0,35.3,30.18,ESE,111,0.0,1.9,80,0.00,,CLR,0.00,VWS V14.01,2013-01-21 05:19:00,
2013-01-20 21:25:00,41.0,35.3,30.18,ESE,123,1.9,1.9,80,0.00,,CLR,0.00,VWS V14.01,2013-01-21 05:25:00,
2013-01-20 21:30:00,41.0,35.3,30.19,NE,54,0.0,5.7,80,0.00,,CLR,0.00,VWS V14.01,2013-01-21 05:30:00,
2013-01-20 21:35:00,41.1,35.1,30.19,ESE,120,1.9,3.8,79,0.00,,CLR,0.00,VWS V14.01,2013-01-21 05:35:00,
2013-01-20 21:40:00,41.2,34.9,30.19,ESE,122,3.8,3.8,78,0.00,,CLR,0.00,VWS V14.01,2013-01-21 05:40:00,
2013-01-20 21:45:00,41.3,34.7,30.19,ESE,123,0.0,5.7,77,0.00,,CLR,0.00,VWS V14.01,2013-01-21 05:45:00,
2013-01-20 21:50:00,41.1,34.8,30.19,SE,127,0.0,5.7,78,0.00,,CLR,0.00,VWS V14.01,2013-01-21 05:50:00,
2013-01-20 21:55:00,40.8,34.5,30.19,ESE,105,0.0,5.7,78,0.00,,CLR,0.00,VWS V14.01,2013-01-21 05:55:00,
2013-01-20 22:00:00,40.4,34.4,30.19,ESE,122,0.0,3.8,79,0.00,,CLR,0.00,VWS V14.01,2013-01-21 06:00:00,
2013-01-20 22:06:00,40.0,34.3,30.19,ESE,121,0.0,3.8,80,0.00,,CLR,0.00,VWS V14.01,2013-01-21 06:06:00,
2013-01-20 22:11:00,39.6,34.0,30.19,ESE,122,0.0,3.8,80,0.00,,CLR,0.00,VWS V14.01,2013-01-21 06:11:00,
2013-01-20 22:16:00,39.1,33.8,30.19,ESE,103,1.9,3.8,81,0.00,,CLR,0.00,VWS V14.01,2013-01-21 06:16:00,
2013-01-20 22:21:00,38.7,33.7,30.19,ESE,105,0.0,3.8,82,0.00,,CLR,0.00,VWS V14.01,2013-01-21 06:21:00,
2013-01-20 22:26:00,38.4,33.4,30.19,ESE,105,0.0,3.8,82,0.00,,CLR,0.00,VWS V14.01,2013-01-21 06:26:00,
2013-01-20 22:32:00,37.9,33.2,30.19,ESE,105,0.0,0.0,83,0.00,,CLR,0.00,VWS V14.01,2013-01-21 06:32:00,
2013-01-20 22:37:00,37.5,32.8,30.19,ESE,105,0.0,0.0,83,0.00,,CLR,0.00,VWS V14.01,2013-01-21 06:37:00,
2013-01-20 22:42:00,37.1,32.7,30.20,ESE,105,0.0,0.0,84,0.00,,CLR,0.00,VWS V14.01,2013-01-21 06:42:00,
2013-01-20 22:47:00,36.9,32.8,30.20,ESE,105,0.0,1.9,85,0.00,,CLR,0.00,VWS V14.01,2013-01-21 06:47:00,
2013-01-20 22:52:00,36.8,32.7,30.20,ENE,63,3.8,3.8,85,0.00,,CLR,0.00,VWS V14.01,2013-01-21 06:52:00,
2013-01-20 22:58:00,36.8,32.7,30.19,ESE,115,1.9,3.8,85,0.00,,CLR,0.00,VWS V14.01,2013-01-21 06:58:00,
2013-01-20 23:03:00,36.7,32.6,30.19,ESE,115,1.9,3.8,85,0.00,,CLR,0.00,VWS V14.01,2013-01-21 07:03:00,
2013-01-20 23:08:00,36.3,32.2,30.19,SE,134,0.0,3.8,85,0.00,,CLR,0.00,VWS V14.01,2013-01-21 07:08:00,
2013-01-20 23:13:00,36.1,32.0,30.20,SE,132,0.0,3.8,85,0.00,,CLR,0.00,VWS V14.01,2013-01-21 07:13:00,
2013-01-20 23:18:00,36.0,31.9,30.20,SE,132,1.9,3.8,85,0.00,,CLR,0.00,VWS V14.01,2013-01-21 07:18:00,
2013-01-20 23:23:00,36.1,32.0,30.19,ESE,105,0.0,3.8,85,0.00,,CLR,0.00,VWS V14.01,2013-01-21 07:23:00,
2013-01-20 23:28:00,36.1,32.0,30.19,ESE,105,0.0,3.8,85,0.00,,CLR,0.00,VWS V14.01,2013-01-21 07:28:00,
2013-01-20 23:33:00,35.8,32.0,30.19,SE,124,0.0,3.8,86,0.00,,CLR,0.00,VWS V14.01,2013-01-21 07:33:00,
2013-01-20 23:38:00,35.7,32.2,30.19,ESE,121,1.9,3.8,87,0.00,,CLR,0.00,VWS V14.01,2013-01-21 07:38:00,
2013-01-20 23:43:00,35.7,32.2,30.19,ESE,113,3.8,3.8,87,0.00,,CLR,0.00,VWS V14.01,2013-01-21 07:43:00,
2013-01-20 23:48:00,35.7,32.2,30.19,ESE,120,1.9,3.8,87,0.00,,CLR,0.00,VWS V14.01,2013-01-21 07:48:00,
2013-01-20 23:54:00,35.8,32.3,30.19,ESE,120,1.9,3.8,87,0.00,,CLR,0.00,VWS V14.01,2013-01-21 07:54:00,
2013-01-20 23:59:00,35.8,32.3,30.18,ESE,117,3.8,3.8,87,0.00,,CLR,0.00,VWS V14.01,2013-01-21 07:59:00,